Time;durP1;ratioP1;P1;durP2;ratioP2;P2;SDS_P1;SDS_P2;PMS_P1;PMS_P2;Temp;Humidity;BMP_temperature;BMP_pressure;BME280_temperature;BME280_humidity;BME280_pressure;Samples;Min_cycle;Max_cycle;Signal;HPM_P1;HPM_P2
2023/07/24 00:00:02;;;;;;;9.00;8.80;;;;;;;-141.02;100.00;44222.28;5132715;28;20283;-58
2023/07/24 00:02:29;;;;;;;8.95;8.75;;;;;;;-141.02;100.00;44333.69;5132618;28;20276;-58
2023/07/24 00:04:58;;;;;;;9.10;8.90;;;;;;;-141.02;100.00;44302.94;5132315;28;20291;-65
2023/07/24 00:07:25;;;;;;;9.30;9.00;;;;;;;-141.02;100.00;44377.84;5132317;28;20670;-59
2023/07/24 00:09:52;;;;;;;8.80;8.60;;;;;;;-141.02;100.00;44909.91;5133007;28;20192;-60
2023/07/24 00:12:19;;;;;;;8.70;8.50;;;;;;;-141.02;100.00;44825.38;5132264;28;20192;-59
2023/07/24 00:14:46;;;;;;;8.73;8.52;;;;;;;-141.02;100.00;45096.25;5132390;28;20256;-59
2023/07/24 00:17:13;;;;;;;8.60;8.40;;;;;;;-141.02;100.00;45324.84;5132232;28;20674;-60
2023/07/24 00:19:40;;;;;;;8.70;8.50;;;;;;;-141.02;100.00;45436.28;5134755;27;20275;-61
2023/07/24 00:22:08;;;;;;;9.00;8.80;;;;;;;-141.02;100.00;45345.97;5135834;27;20196;-58
2023/07/24 00:24:35;;;;;;;8.70;8.50;;;;;;;-141.02;100.00;45440.13;5136318;27;20610;-59
2023/07/24 00:27:02;;;;;;;8.77;8.57;;;;;;;-141.02;100.00;45568.84;5136085;27;20275;-58
2023/07/24 00:29:29;;;;;;;8.60;8.40;;;;;;;-141.02;100.00;45703.34;5136026;27;20279;-61
2023/07/24 00:31:57;;;;;;;8.60;8.40;;;;;;;-141.02;100.00;46170.28;5136027;27;20196;-58
2023/07/24 00:34:24;;;;;;;8.35;8.15;;;;;;;-141.02;100.00;46420.09;5135294;27;20247;-59
2023/07/24 00:36:51;;;;;;;8.10;7.90;;;;;;;-141.02;100.00;47077.41;5135946;27;20228;-60
2023/07/24 00:39:20;;;;;;;7.70;7.50;;;;;;;-141.02;100.00;47779.06;5135448;27;20227;-59
2023/07/24 00:41:47;;;;;;;7.38;7.18;;;;;;;-141.02;100.00;48561.66;5135511;27;20646;-63
2023/07/24 00:44:13;;;;;;;7.45;7.25;;;;;;;-141.02;100.00;49088.59;5135380;27;20243;-61
2023/07/24 00:46:41;;;;;;;7.63;7.43;;;;;;;-141.02;100.00;49288.63;5135515;27;20197;-59
2023/07/24 00:49:09;;;;;;;7.80;7.60;;;;;;;-141.02;100.00;49600.25;5135705;27;20199;-64
2023/07/24 00:51:36;;;;;;;7.68;7.47;;;;;;;-141.02;100.00;50196.59;5135590;27;20230;-63
2023/07/24 00:54:06;;;;;;;7.53;7.32;;;;;;;-141.02;100.00;49984.97;5135494;27;20256;-59
2023/07/24 00:56:35;;;;;;;7.18;6.97;;;;;;;-141.02;100.00;50177.38;5135468;27;20273;-60
2023/07/24 00:59:02;;;;;;;7.70;7.50;;;;;;;-141.02;100.00;49788.75;5135204;27;20188;-61
2023/07/24 01:01:30;;;;;;;7.88;7.68;;;;;;;-141.02;100.00;49996.53;5135045;27;20203;-58
2023/07/24 01:03:58;;;;;;;7.38;7.18;;;;;;;-141.02;100.00;50935.47;5135410;27;20544;-60
2023/07/24 01:06:25;;;;;;;7.00;6.80;;;;;;;-141.02;100.00;52814.19;5135110;27;20193;-58
2023/07/24 01:08:52;;;;;;;6.95;6.75;;;;;;;-141.02;100.00;52989.41;5134942;27;20196;-59
2023/07/24 01:11:21;;;;;;;7.05;6.85;;;;;;;-141.02;100.00;53538.22;5135245;27;20224;-62
2023/07/24 01:13:57;;;;;;;6.90;6.70;;;;;;;-141.02;100.00;54293.25;5134774;27;20225;-60
2023/07/24 01:16:31;;;;;;;6.80;6.60;;;;;;;-141.02;100.00;55033.00;5134844;27;20639;-63
2023/07/24 01:19:02;;;;;;;6.90;6.70;;;;;;;-141.02;100.00;55033.00;5135134;27;20195;-64
2023/07/24 01:21:34;;;;;;;6.80;6.60;;;;;;;-141.02;100.00;54786.41;5135364;27;20193;-64
2023/07/24 01:24:16;;;;;;;7.00;6.80;;;;;;;-141.02;100.00;55279.63;5135024;27;20194;-62
2023/07/24 01:26:45;;;;;;;7.20;7.00;;;;;;;-141.02;100.00;54293.25;5134976;27;20192;-60
2023/07/24 01:29:11;;;;;;;7.20;7.00;;;;;;;-141.02;100.00;53272.47;5134610;27;20189;-59
2023/07/24 01:31:38;;;;;;;7.03;6.82;;;;;;;-141.02;100.00;53457.34;5133355;27;20196;-62
2023/07/24 01:34:05;;;;;;;7.20;7.00;;;;;;;-141.02;100.00;54293.25;5134382;27;20338;-62
2023/07/24 01:36:32;;;;;;;7.10;6.90;;;;;;;-141.02;100.00;55033.00;5134742;27;20199;-65
2023/07/24 01:39:00;;;;;;;7.30;7.10;;;;;;;-141.02;100.00;55526.28;5134394;27;20556;-63
2023/07/24 01:41:28;;;;;;;7.25;7.05;;;;;;;-141.02;100.00;56759.78;5134207;27;20288;-58
2023/07/24 01:43:56;;;;;;;6.80;6.60;;;;;;;-141.02;100.00;57993.72;5134350;27;20671;-60
2023/07/24 01:46:23;;;;;;;6.30;6.20;;;;;;;-141.02;100.00;58734.28;5134505;27;20196;-60
2023/07/24 01:48:52;;;;;;;6.40;6.30;;;;;;;-141.02;100.00;59228.09;5134648;27;20198;-59
2023/07/24 01:51:19;;;;;;;7.00;6.80;;;;;;;-141.02;100.00;57993.72;5134113;27;20270;-61
2023/07/24 01:53:46;;;;;;;7.30;7.10;;;;;;;-141.02;100.00;57500.06;5134043;27;20200;-60
2023/07/24 01:56:11;;;;;;;7.00;6.80;;;;;;;-141.02;100.00;57993.72;5134034;27;20565;-65
2023/07/24 01:58:38;;;;;;;6.80;6.60;;;;;;;-141.02;100.00;58487.41;5134240;27;20279;-61
2023/07/24 02:01:07;;;;;;;6.60;6.40;;;;;;;-141.02;100.00;59228.09;5134022;27;20203;-58
2023/07/24 02:03:34;;;;;;;6.40;6.30;;;;;;;-141.02;100.00;59475.03;5134126;27;20203;-60
2023/07/24 02:06:01;;;;;;;6.30;6.20;;;;;;;-141.02;100.00;60215.94;5134178;27;20287;-59
2023/07/24 02:08:28;;;;;;;6.35;6.25;;;;;;;-141.02;100.00;59968.94;5133806;27;20659;-58
2023/07/24 02:10:54;;;;;;;6.78;6.57;;;;;;;-141.02;100.00;58487.41;5133999;27;20275;-64
2023/07/24 02:13:21;;;;;;;7.07;6.88;;;;;;;-141.02;100.00;58487.41;5134059;27;20198;-61
2023/07/24 02:15:48;;;;;;;6.82;6.63;;;;;;;-141.02;100.00;57500.06;5133543;27;20224;-58
2023/07/24 02:18:17;;;;;;;6.80;6.60;;;;;;;-141.02;100.00;57500.06;5133664;27;20562;-59
2023/07/24 02:20:50;;;;;;;6.90;6.70;;;;;;;-141.02;100.00;57746.88;5133877;27;20189;-65
2023/07/24 02:23:16;;;;;;;6.90;6.70;;;;;;;-141.02;100.00;58734.28;5133597;27;20198;-59
2023/07/24 02:25:44;;;;;;;7.05;6.85;;;;;;;-141.02;100.00;57993.72;5133824;27;20640;-60
2023/07/24 02:28:11;;;;;;;6.65;6.45;;;;;;;-141.02;100.00;57993.72;5133383;27;20199;-60
2023/07/24 02:30:39;;;;;;;6.78;6.57;;;;;;;-141.02;100.00;57993.72;5133426;27;20280;-59
2023/07/24 02:33:06;;;;;;;6.40;6.30;;;;;;;-141.02;100.00;57746.88;5133637;27;20195;-60
2023/07/24 02:35:39;;;;;;;6.82;6.63;;;;;;;-141.02;100.00;57746.88;5133130;27;20239;-59
2023/07/24 02:38:06;;;;;;;6.90;6.70;;;;;;;-141.02;100.00;57993.72;5133541;27;20193;-61
2023/07/24 02:40:34;;;;;;;6.60;6.40;;;;;;;-141.02;100.00;58487.41;5133586;27;20192;-64
2023/07/24 02:43:01;;;;;;;6.20;6.10;;;;;;;-141.02;100.00;58981.19;5133228;27;20196;-58
2023/07/24 02:45:28;;;;;;;6.57;6.38;;;;;;;-141.02;100.00;59228.09;5133129;27;20279;-61
2023/07/24 02:47:55;;;;;;;6.30;6.20;;;;;;;-141.02;100.00;60215.94;5133462;27;20196;-60
2023/07/24 02:50:22;;;;;;;6.32;6.22;;;;;;;-141.02;100.00;61204.03;5133401;27;20219;-61
2023/07/24 02:52:50;;;;;;;6.20;6.10;;;;;;;-141.02;100.00;62192.44;5133388;27;20196;-64
2023/07/24 02:55:17;;;;;;;5.90;5.80;;;;;;;-141.02;100.00;63181.16;5133030;27;20228;-61
2023/07/24 02:57:44;;;;;;;5.80;5.70;;;;;;;-141.02;100.00;64170.13;5132985;27;20738;-61
2023/07/24 03:00:12;;;;;;;5.60;5.50;;;;;;;-141.02;100.00;65159.41;5132956;27;20192;-62
2023/07/24 03:02:40;;;;;;;5.80;5.70;;;;;;;-141.02;100.00;65901.53;5132947;27;20234;-60
2023/07/24 03:05:07;;;;;;;5.95;5.85;;;;;;;-141.02;100.00;66891.31;5133237;27;20192;-58
2023/07/24 03:07:36;;;;;;;5.90;5.80;;;;;;;-141.02;100.00;67138.78;5133152;27;20223;-60
2023/07/24 03:10:05;;;;;;;5.40;5.30;;;;;;;-141.02;100.00;68128.91;5132964;27;20192;-62
2023/07/24 03:12:32;;;;;;;5.80;5.70;;;;;;;-141.02;100.00;68871.72;5133186;28;20192;-63
2023/07/24 03:14:58;;;;;;;5.45;5.35;;;;;;;-141.02;100.00;69366.97;5133036;28;20311;-62
2023/07/24 03:17:25;;;;;;;5.60;5.50;;;;;;;-141.02;100.00;70110.03;5133197;28;20188;-64
2023/07/24 03:19:52;;;;;;;5.50;5.40;;;;;;;-141.02;100.00;70110.03;5132733;28;20196;-62
2023/07/24 03:22:19;;;;;;;5.60;5.50;;;;;;;-141.02;100.00;70605.50;5132858;28;20203;-63
2023/07/24 03:24:46;;;;;;;5.60;5.50;;;;;;;-141.02;100.00;71348.81;5133113;28;20196;-59
2023/07/24 03:27:30;;;;;;;5.60;5.50;;;;;;;-141.02;100.00;72340.16;5132754;28;20241;-62
2023/07/24 03:29:57;;;;;;;5.50;5.40;;;;;;;-141.02;100.00;72835.97;5132676;28;20287;-60
2023/07/24 03:32:24;;;;;;;5.10;5.00;;;;;;;-141.02;100.00;73083.88;5132951;28;20218;-63
2023/07/24 03:34:51;;;;;;;5.50;5.40;;;;;;;-141.02;100.00;73083.88;5132486;28;20658;-65
2023/07/24 03:37:18;;;;;;;5.50;5.40;;;;;;;-141.02;100.00;73579.75;5132533;28;20238;-64
2023/07/24 03:39:45;;;;;;;5.35;5.25;;;;;;;-141.02;100.00;74571.75;5132912;28;20189;-63
2023/07/24 03:42:13;;;;;;;5.30;5.20;;;;;;;-141.02;100.00;75812.16;5132542;28;20193;-61
2023/07/24 03:44:41;;;;;;;5.38;5.28;;;;;;;-141.02;100.00;76804.81;5132564;28;20192;-64
2023/07/24 03:47:09;;;;;;;5.00;4.90;;;;;;;-141.02;100.00;77053.00;5132855;28;20571;-65
2023/07/24 03:49:36;;;;;;;6.30;6.20;;;;;;;-141.02;100.00;77301.22;5132629;28;20703;-62
2023/07/24 03:52:04;;;;;;;5.88;5.78;;;;;;;-141.02;100.00;76804.81;5132588;28;20284;-57
2023/07/24 03:54:30;;;;;;;5.88;5.78;;;;;;;-141.02;100.00;78542.63;5134583;27;20198;-61
2023/07/24 03:57:01;;;;;;;6.10;6.00;;;;;;;-141.02;100.00;77549.47;5136740;27;20192;-58
2023/07/24 04:02:51;;;;;;;9.15;8.85;;;;;;;-141.02;100.00;69614.66;5136531;27;20609;-61
2023/07/24 04:05:18;;;;;;;9.90;9.60;;;;;;;-141.02;100.00;63675.59;5136342;27;20203;-63
2023/07/24 04:08:37;;;;;;;9.68;9.38;;;;;;;-141.02;100.00;62933.94;5136206;27;20197;-64
2023/07/24 04:11:05;;;;;;;9.68;9.38;;;;;;;-141.02;100.00;64170.13;5137023;27;20284;-62
2023/07/24 04:13:32;;;;;;;9.75;9.45;;;;;;;-141.02;100.00;64170.13;5136201;27;20197;-64
2023/07/24 04:15:59;;;;;;;9.77;9.48;;;;;;;-141.02;100.00;66396.38;5136302;27;20307;-58
2023/07/24 04:18:27;;;;;;;9.90;9.60;;;;;;;-141.02;100.00;68871.72;5135688;27;20658;-64
2023/07/24 04:20:56;;;;;;;9.45;9.15;;;;;;;-141.02;100.00;68376.50;5136244;27;20275;-63
2023/07/24 04:23:23;;;;;;;9.80;9.50;;;;;;;-141.02;100.00;68624.09;5136317;27;20538;-63
2023/07/24 04:25:51;;;;;;;9.90;9.60;;;;;;;-141.02;100.00;66891.31;5135915;27;20563;-64
2023/07/24 04:28:18;;;;;;;9.55;9.25;;;;;;;-141.02;100.00;66891.31;5136165;27;20227;-65
2023/07/24 04:30:44;;;;;;;7.88;7.68;;;;;;;-141.02;100.00;68128.91;5136087;27;20203;-60
2023/07/24 04:33:11;;;;;;;8.20;8.00;;;;;;;-141.02;100.00;68871.72;5136008;27;20623;-64
2023/07/24 04:35:40;;;;;;;8.60;8.40;;;;;;;-141.02;100.00;67881.38;5135514;27;20240;-64
2023/07/24 04:38:07;;;;;;;8.65;8.45;;;;;;;-141.02;100.00;67633.81;5135605;27;20290;-62
2023/07/24 04:40:34;;;;;;;9.40;9.10;;;;;;;-141.02;100.00;64912.06;5135626;27;20232;-61
2023/07/24 04:43:01;;;;;;;9.82;9.52;;;;;;;-141.02;100.00;67881.38;5135889;27;20242;-62
2023/07/24 04:45:28;;;;;;;8.80;8.60;;;;;;;-141.02;100.00;69862.34;5135406;27;20283;-64
2023/07/24 04:47:55;;;;;;;8.00;7.80;;;;;;;-141.02;100.00;75067.88;5135722;27;20621;-64
2023/07/24 04:50:23;;;;;;;9.23;8.93;;;;;;;-141.02;100.00;70605.50;5135669;27;20276;-64
2023/07/24 04:52:52;;;;;;;9.60;9.30;;;;;;;-141.02;100.00;69862.34;5135793;27;20192;-64
2023/07/24 04:55:19;;;;;;;10.40;10.10;;;;;;;-141.02;100.00;68128.91;5135271;27;20316;-59
2023/07/24 04:57:46;;;;;;;11.75;11.35;;;;;;;-141.02;100.00;63922.84;5135658;27;20311;-58
2023/07/24 05:00:15;;;;;;;12.80;12.40;;;;;;;-141.02;100.00;59475.03;5135317;27;20724;-58
2023/07/24 05:02:42;;;;;;;13.57;13.07;;;;;;;-141.02;100.00;56759.78;5135219;27;20232;-59
2023/07/24 05:05:10;;;;;;;14.55;13.95;;;;;;;-141.02;100.00;53372.59;5134954;27;20243;-62
2023/07/24 05:07:37;;;;;;;14.68;14.07;;;;;;;-141.02;100.00;52402.16;5135422;27;20279;-59
2023/07/24 05:10:07;;;;;;;13.38;12.88;;;;;;;-141.02;100.00;51732.25;5135403;27;20280;-59
2023/07/24 05:12:33;;;;;;;14.02;13.52;;;;;;;-141.02;100.00;51406.97;5135291;27;20279;-61
2023/07/24 05:15:00;;;;;;;13.60;13.10;;;;;;;-141.02;100.00;51401.22;5135250;27;20279;-60
2023/07/24 05:17:27;;;;;;;12.90;12.50;;;;;;;-141.02;100.00;51041.31;5135223;27;20275;-63
2023/07/24 05:19:54;;;;;;;13.27;12.77;;;;;;;-141.02;100.00;50812.31;5135168;27;20275;-59
2023/07/24 05:22:21;;;;;;;13.77;13.27;;;;;;;-141.02;100.00;50589.13;5134841;27;20564;-60
2023/07/24 05:24:48;;;;;;;13.98;13.48;;;;;;;-141.02;100.00;50023.47;5135036;27;20611;-61
2023/07/24 05:27:18;;;;;;;14.07;13.57;;;;;;;-141.02;100.00;50335.13;5134733;27;20227;-59
2023/07/24 05:29:45;;;;;;;13.90;13.40;;;;;;;-141.02;100.00;50371.69;5135098;27;20199;-59
2023/07/24 05:32:12;;;;;;;13.75;13.25;;;;;;;-141.02;100.00;50331.28;5134592;27;20685;-61
2023/07/24 05:34:39;;;;;;;13.43;12.93;;;;;;;-141.02;100.00;50639.16;5134578;27;20235;-64
2023/07/24 05:37:06;;;;;;;14.40;13.90;;;;;;;-141.02;100.00;49388.66;5134707;27;20256;-58
2023/07/24 05:39:33;;;;;;;14.40;13.90;;;;;;;-141.02;100.00;48911.66;5134777;27;20271;-59
2023/07/24 05:42:00;;;;;;;13.93;13.43;;;;;;;-141.02;100.00;49179.00;5134701;27;20200;-65
2023/07/24 05:44:29;;;;;;;13.88;13.38;;;;;;;-141.02;100.00;50017.69;5134354;27;20287;-59
2023/07/24 05:46:56;;;;;;;14.10;13.60;;;;;;;-141.02;100.00;49561.75;5134700;27;20275;-60
2023/07/24 05:49:23;;;;;;;14.13;13.63;;;;;;;-141.02;100.00;49640.63;5134351;27;20195;-62
2023/07/24 05:51:50;;;;;;;13.95;13.45;;;;;;;-141.02;100.00;49809.91;5134248;27;20663;-59
2023/07/24 05:54:17;;;;;;;14.70;14.20;;;;;;;-141.02;100.00;49113.59;5134151;27;20670;-59
2023/07/24 05:56:43;;;;;;;13.85;13.35;;;;;;;-141.02;100.00;49467.50;5134030;27;20268;-62
2023/07/24 05:59:10;;;;;;;14.65;14.15;;;;;;;-141.02;100.00;49125.16;5134461;27;20222;-62
2023/07/24 06:01:39;;;;;;;15.10;14.50;;;;;;;-141.02;100.00;48977.06;5133999;27;20650;-59
2023/07/24 06:04:07;;;;;;;15.73;15.13;;;;;;;-141.02;100.00;48384.75;5134268;27;20202;-59
2023/07/24 06:06:34;;;;;;;14.68;14.07;;;;;;;-141.02;100.00;48777.03;5134133;27;20196;-64
2023/07/24 06:09:01;;;;;;;16.20;15.60;;;;;;;-141.02;100.00;48173.22;5134197;27;20276;-65
2023/07/24 06:11:28;;;;;;;16.60;15.90;;;;;;;-141.02;100.00;47861.75;5134121;27;20224;-61
2023/07/24 06:13:55;;;;;;;17.10;16.40;;;;;;;-141.02;100.00;48173.22;5134073;27;20279;-61
2023/07/24 06:16:22;;;;;;;18.30;17.50;;;;;;;-141.02;96.61;47863.66;5133043;27;20316;-65
2023/07/24 06:18:50;;;;;;;18.33;17.52;;;;;;;-141.02;96.18;47269.63;5133665;27;20625;-64
2023/07/24 06:21:17;;;;;;;16.85;16.15;;;;;;;-141.02;94.67;47492.63;5134001;27;20195;-63
2023/07/24 06:23:44;;;;;;;17.58;16.67;;;;;;;-141.02;94.09;47285.00;5133634;27;20685;-62
2023/07/24 06:26:11;;;;;;;18.05;17.25;;;;;;;-141.02;90.92;47219.66;5133855;27;20292;-64
2023/07/24 06:28:38;;;;;;;18.35;17.55;;;;;;;-141.02;93.30;48346.28;5133920;27;20279;-62
2023/07/24 06:31:05;;;;;;;18.55;17.75;;;;;;;-141.02;93.59;47496.47;5133482;27;20279;-61
2023/07/24 06:33:32;;;;;;;18.50;17.70;;;;;;;-141.02;92.87;47930.97;5133393;27;20220;-59
2023/07/24 06:36:00;;;;;;;18.92;18.13;;;;;;;-141.02;90.46;47438.81;5133304;27;20269;-62
2023/07/24 06:38:27;;;;;;;18.17;17.38;;;;;;;-141.02;91.86;47534.91;5133410;27;20253;-62
2023/07/24 06:40:54;;;;;;;19.13;18.33;;;;;;;-141.02;91.06;47446.50;5133418;27;20189;-64
2023/07/24 06:43:21;;;;;;;18.45;17.65;;;;;;;-141.02;90.48;47396.50;5133571;27;20219;-64
2023/07/24 06:45:48;;;;;;;19.60;18.70;;;;;;;-141.02;91.33;48096.31;5133541;27;20200;-64
2023/07/24 06:48:15;;;;;;;19.40;18.50;;;;;;;-141.02;88.69;47784.84;5133481;27;20264;-59
2023/07/24 06:50:42;;;;;;;19.60;18.70;;;;;;;-141.02;87.75;47831.00;5133227;27;20196;-64
2023/07/24 06:53:10;;;;;;;19.80;18.90;;;;;;;-141.02;86.34;47761.78;5133302;27;20249;-59
2023/07/24 06:55:37;;;;;;;20.02;19.13;;;;;;;-141.02;87.26;47375.38;5133011;27;20228;-62
2023/07/24 06:58:04;;;;;;;19.40;18.50;;;;;;;-141.02;91.10;47975.19;5133191;27;20283;-65
2023/07/24 07:00:32;;;;;;;19.23;18.33;;;;;;;-141.02;86.49;47204.28;5133034;27;20709;-64
2023/07/24 07:02:59;;;;;;;18.48;17.67;;;;;;;-141.02;84.25;47938.66;5133120;27;20253;-62
2023/07/24 07:05:26;;;;;;;19.88;18.98;;;;;;;-141.02;82.58;47565.69;5132988;27;20293;-62
2023/07/24 07:07:53;;;;;;;18.73;17.92;;;;;;;-141.02;82.75;47834.84;5133030;27;20196;-59
2023/07/24 07:10:21;;;;;;;19.20;18.30;;;;;;;-141.02;78.34;47400.34;5132949;27;20196;-63
2023/07/24 07:12:48;;;;;;;19.75;18.85;;;;;;;-141.02;81.17;48169.38;5132895;28;20234;-63
2023/07/24 07:15:15;;;;;;;19.85;18.95;;;;;;;-141.02;78.18;47929.03;5132951;28;20283;-62
2023/07/24 07:17:43;;;;;;;19.80;18.90;;;;;;;-141.02;75.93;47621.44;5133069;28;20235;-60
2023/07/24 07:20:10;;;;;;;19.90;19.00;;;;;;;-141.02;75.73;47015.91;5133235;27;20196;-63
2023/07/24 07:22:37;;;;;;;19.80;18.90;;;;;;;-141.02;74.38;46871.75;5132954;28;20386;-65
2023/07/24 07:25:05;;;;;;;19.42;18.52;;;;;;;-141.02;70.81;46395.13;5132822;28;20214;-60
2023/07/24 07:27:33;;;;;;;18.88;17.98;;;;;;;-141.02;73.35;47286.94;5133714;27;20200;-64
2023/07/24 07:30:00;;;;;;;19.70;18.80;;;;;;;-141.02;73.46;47488.78;5136980;27;20757;-62
2023/07/24 07:32:28;;;;;;;19.48;18.58;;;;;;;-141.02;72.28;46923.63;5137376;27;20192;-64
2023/07/24 07:34:54;;;;;;;19.88;18.98;;;;;;;-141.02;70.03;47279.25;5136743;27;20577;-61
2023/07/24 07:37:21;;;;;;;19.55;18.65;;;;;;;-141.02;68.56;46962.09;5136793;27;20579;-61
2023/07/24 07:39:48;;;;;;;19.75;18.85;;;;;;;-141.02;68.19;47050.50;5137247;27;20192;-61
2023/07/24 07:42:15;;;;;;;19.75;18.83;;;;;;;-141.02;68.23;47479.16;5136765;27;20288;-65
2023/07/24 07:44:44;;;;;;;20.27;19.27;;;;;;;-141.02;65.70;47288.84;5136788;27;20196;-63
2023/07/24 07:47:11;;;;;;;20.02;19.02;;;;;;;-141.02;67.68;47481.09;5137004;27;20200;-62
2023/07/24 07:49:39;;;;;;;20.58;19.58;;;;;;;-141.02;65.52;46470.06;5136678;27;20283;-62
2023/07/24 07:52:07;;;;;;;20.30;19.30;;;;;;;-141.02;65.74;46685.31;5136611;27;20202;-66
2023/07/24 07:54:34;;;;;;;20.60;19.60;;;;;;;-141.02;65.69;46639.19;5136502;27;20757;-60
2023/07/24 07:57:01;;;;;;;19.45;18.55;;;;;;;-141.02;66.76;47054.34;5136426;27;20315;-61
2023/07/24 07:59:28;;;;;;;20.63;19.63;;;;;;;-141.02;66.33;46762.19;5136749;27;20192;-65
2023/07/24 08:01:56;;;;;;;20.67;19.67;;;;;;;-141.02;66.33;46933.25;5136442;27;20227;-64
2023/07/24 08:04:23;;;;;;;21.15;20.15;;;;;;;-141.02;64.11;46600.75;5136314;27;20198;-62
2023/07/24 08:06:50;;;;;;;21.02;20.02;;;;;;;-141.02;61.76;46658.41;5136555;27;20196;-62
2023/07/24 08:09:17;;;;;;;21.55;20.45;;;;;;;-141.02;60.95;45858.97;5136254;27;20681;-60
2023/07/24 08:11:44;;;;;;;21.23;20.23;;;;;;;-141.02;58.82;45807.09;5136476;27;20214;-62
2023/07/24 08:14:11;;;;;;;19.95;19.05;;;;;;;-141.02;62.85;47113.94;5136169;27;20197;-62
2023/07/24 08:16:38;;;;;;;21.20;20.10;;;;;;;-141.02;58.90;46416.25;5135973;27;20310;-59
2023/07/24 08:19:06;;;;;;;21.02;19.92;;;;;;;-141.02;58.33;46112.63;5136394;27;20193;-64
2023/07/24 08:21:33;;;;;;;21.08;19.98;;;;;;;-141.02;58.20;46101.09;5136040;27;20196;-63
2023/07/24 08:24:01;;;;;;;21.65;20.55;;;;;;;-141.02;58.50;46212.53;5136745;27;20243;-65
2023/07/24 08:26:28;;;;;;;21.05;19.95;;;;;;;-141.02;57.63;45367.13;5136009;27;20203;-65
2023/07/24 08:28:55;;;;;;;20.13;19.13;;;;;;;-141.02;58.38;45080.88;5135841;27;20200;-65
2023/07/24 08:31:22;;;;;;;20.88;19.77;;;;;;;-141.02;58.41;46016.53;5135842;27;20232;-61
2023/07/24 08:33:49;;;;;;;20.90;19.80;;;;;;;-141.02;57.27;46116.47;5135815;27;20259;-61
2023/07/24 08:36:18;;;;;;;21.33;20.23;;;;;;;-141.02;58.07;46343.22;5136013;27;20216;-63
2023/07/24 08:38:45;;;;;;;21.15;20.05;;;;;;;-141.02;56.09;46001.16;5136059;27;20196;-64
2023/07/24 08:41:13;;;;;;;21.80;20.70;;;;;;;-141.02;57.50;45789.81;5135258;27;20220;-65
2023/07/24 08:43:42;;;;;;;21.92;20.73;;;;;;;-141.02;56.50;45607.28;5135596;27;20228;-64
2023/07/24 08:46:10;;;;;;;21.08;19.98;;;;;;;-141.02;55.37;45866.66;5135557;27;20662;-62
2023/07/24 08:48:38;;;;;;;21.05;19.95;;;;;;;-141.02;55.43;45332.53;5135581;27;20288;-66
2023/07/24 08:51:06;;;;;;;21.58;20.48;;;;;;;-141.02;55.85;45493.91;5135476;27;20705;-65
2023/07/24 08:53:36;;;;;;;21.88;20.85;;;;;;;-141.02;55.61;45436.28;5135461;27;20197;-64
2023/07/24 08:56:04;;;;;;;21.05;20.02;;;;;;;-141.02;56.53;46128.00;5135374;27;20232;-66
2023/07/24 08:58:31;;;;;;;21.30;20.10;;;;;;;-141.02;55.55;46235.59;5135292;27;20232;-65
2023/07/24 09:00:59;;;;;;;21.35;20.15;;;;;;;-141.02;55.63;46631.50;5135310;27;20279;-66
2023/07/24 09:03:26;;;;;;;20.80;19.70;;;;;;;-141.02;54.44;46677.63;5135510;27;20245;-65
2023/07/24 09:05:53;;;;;;;21.42;20.23;;;;;;;-141.02;54.41;45386.31;5135531;27;20206;-65
2023/07/24 09:08:30;;;;;;;20.95;19.85;;;;;;;-141.02;55.20;45148.09;5135475;27;20207;-65
2023/07/24 09:10:58;;;;;;;21.70;20.60;;;;;;;-141.02;56.06;44635.22;5135190;27;20220;-64
2023/07/24 09:13:25;;;;;;;30.90;29.23;;;;;;;-141.02;55.71;45075.09;5135019;27;20283;-64
2023/07/24 09:15:52;;;;;;;22.73;21.42;;;;;;;-141.02;54.82;45436.28;5134965;27;20239;-63
2023/07/24 09:18:19;;;;;;;21.10;19.90;;;;;;;-141.02;54.53;45797.50;5135170;27;20223;-66
2023/07/24 09:20:47;;;;;;;20.42;19.33;;;;;;;-141.02;53.84;45958.91;5135192;27;20198;-64
2023/07/24 09:23:15;;;;;;;21.40;20.20;;;;;;;-141.02;54.50;46189.50;5134888;27;20192;-66
2023/07/24 09:25:43;;;;;;;21.73;20.52;;;;;;;-141.02;52.14;45920.47;5135081;27;20288;-64
2023/07/24 09:28:13;;;;;;;21.25;20.05;;;;;;;-141.02;51.32;45490.06;5135083;27;20208;-66
2023/07/24 09:30:41;;;;;;;21.15;20.05;;;;;;;-141.02;52.67;45495.84;5134706;27;20196;-59
2023/07/24 09:33:08;;;;;;;21.05;19.95;;;;;;;-141.02;50.91;44900.31;5135008;27;20247;-62
2023/07/24 09:35:36;;;;;;;22.58;21.45;;;;;;;-141.02;51.90;45128.91;5134491;27;20721;-60
2023/07/24 09:38:05;;;;;;;21.60;20.30;;;;;;;-141.02;50.78;45486.22;5134625;27;20255;-62
2023/07/24 09:40:40;;;;;;;20.73;19.63;;;;;;;-141.02;51.20;45541.94;5134450;27;20253;-64
2023/07/24 09:43:19;;;;;;;21.67;20.48;;;;;;;-141.02;51.95;45103.94;5134486;27;20673;-66
2023/07/24 09:45:47;;;;;;;20.95;19.85;;;;;;;-141.02;51.47;45019.41;5134341;27;20195;-61
2023/07/24 09:48:16;;;;;;;21.48;20.27;;;;;;;-141.02;51.99;45321.00;5134179;27;20542;-64
2023/07/24 09:50:45;;;;;;;20.90;19.80;;;;;;;-141.02;52.64;45428.59;5133978;27;20280;-61
2023/07/24 09:53:16;;;;;;;21.70;20.50;;;;;;;-141.02;52.84;44936.78;5133679;27;20568;-63
2023/07/24 09:55:50;;;;;;;79.18;74.88;;;;;;;-141.02;53.87;45401.69;5134270;27;20306;-62
2023/07/24 09:58:20;;;;;;;47.45;44.65;;;;;;;-141.02;53.04;44614.09;5133898;27;20222;-64
2023/07/24 10:00:47;;;;;;;43.55;41.05;;;;;;;-141.02;53.26;45743.69;5134428;27;20250;-61
2023/07/24 10:03:15;;;;;;;46.78;44.13;;;;;;;-141.02;53.41;45530.41;5134068;27;20192;-60
2023/07/24 10:05:43;;;;;;;21.08;19.98;;;;;;;-141.02;52.83;45545.78;5134231;27;20200;-60
2023/07/24 10:08:11;;;;;;;21.27;20.17;;;;;;;-141.02;52.96;45505.44;5134369;27;20222;-64
2023/07/24 10:10:39;;;;;;;22.35;21.25;;;;;;;-141.02;53.55;45121.22;5134120;27;20250;-65
2023/07/24 10:13:07;;;;;;;19.83;18.73;;;;;;;-141.02;54.38;45140.44;5134222;27;20192;-65
2023/07/24 10:15:36;;;;;;;21.30;20.10;;;;;;;-141.02;54.36;45597.66;5133580;27;20232;-60
2023/07/24 10:18:04;;;;;;;19.95;18.85;;;;;;;-141.02;53.64;45547.72;5133882;27;20224;-64
2023/07/24 10:20:36;;;;;;;20.10;19.00;;;;;;;-141.02;52.93;45751.38;5134033;27;20192;-65
2023/07/24 10:23:03;;;;;;;20.60;19.40;;;;;;;-141.02;52.44;45443.97;5133704;27;20189;-62
2023/07/24 10:25:34;;;;;;;20.90;19.70;;;;;;;-141.02;54.28;45284.50;5133978;27;20188;-62
2023/07/24 10:28:07;;;;;;;21.00;19.80;;;;;;;-141.02;52.89;45472.78;5133666;27;20279;-65
2023/07/24 10:30:36;;;;;;;38.25;36.05;;;;;;;-141.02;52.43;45588.06;5133797;27;20350;-61
2023/07/24 10:33:12;;;;;;;24.85;23.52;;;;;;;-141.02;51.74;46454.69;5133308;27;20654;-65
2023/07/24 10:35:40;;;;;;;21.50;20.30;;;;;;;-141.02;50.79;47071.66;5133311;27;20282;-60
2023/07/24 10:38:07;;;;;;;43.55;40.90;;;;;;;-141.02;49.92;47017.81;5133565;27;20224;-59
2023/07/24 10:40:35;;;;;;;20.88;19.67;;;;;;;-141.02;50.71;47657.97;5133383;27;20283;-60
2023/07/24 10:43:05;;;;;;;20.92;19.73;;;;;;;-141.02;50.47;46885.19;5133531;27;20658;-63
2023/07/24 10:45:47;;;;;;;21.38;20.17;;;;;;;-141.02;51.22;47484.94;5133241;27;20227;-62
2023/07/24 10:48:14;;;;;;;21.02;19.83;;;;;;;-141.02;49.62;46562.31;5133510;27;20264;-61
2023/07/24 10:50:43;;;;;;;21.48;20.23;;;;;;;-141.02;49.92;47054.34;5133201;27;20236;-60
2023/07/24 10:53:11;;;;;;;20.45;19.25;;;;;;;-141.02;50.36;47377.28;5133337;27;20192;-60
2023/07/24 10:55:38;;;;;;;21.45;20.15;;;;;;;-141.02;49.34;48140.53;5133109;27;20287;-63
2023/07/24 10:58:05;;;;;;;22.27;20.90;;;;;;;-141.02;48.55;47131.22;5132985;27;20230;-66
2023/07/24 11:00:32;;;;;;;21.52;20.23;;;;;;;-141.02;50.06;46197.19;5133305;27;20196;-65
2023/07/24 11:03:01;;;;;;;21.83;20.52;;;;;;;-141.02;51.10;45924.31;5133061;27;20623;-65
2023/07/24 11:05:28;;;;;;;21.75;20.55;;;;;;;-141.02;50.22;46089.56;5133229;27;20200;-62
2023/07/24 11:07:56;;;;;;;21.05;19.85;;;;;;;-141.02;49.97;47119.69;5132858;27;20729;-63
2023/07/24 11:10:24;;;;;;;20.70;19.40;;;;;;;-141.02;50.70;46669.94;5132891;27;20279;-62